Time;durP1;ratioP1;P1;durP2;ratioP2;P2;SDS_P1;SDS_P2;PMS_P1;PMS_P2;Temp;Humidity;BMP_temperature;BMP_pressure;BME280_temperature;BME280_humidity;BME280_pressure;Samples;Min_cycle;Max_cycle;Signal;HPM_P1;HPM_P2
2021/05/19 00:01:39;;;;;;;6.70;5.43;;;8.90;99.90;;;;;;5157583;27;20047;-57
2021/05/19 00:04:06;;;;;;;4.53;3.90;;;9.00;99.90;;;;;;5157104;27;20063;-57
2021/05/19 00:06:33;;;;;;;5.10;4.38;;;9.00;99.90;;;;;;5157102;27;20484;-58
2021/05/19 00:08:58;;;;;;;7.00;5.22;;;9.00;99.90;;;;;;5157156;27;20057;-58
2021/05/19 00:11:24;;;;;;;5.95;4.70;;;8.90;99.90;;;;;;5157336;27;20467;-57
2021/05/19 00:13:51;;;;;;;7.88;5.40;;;8.80;99.90;;;;;;5157216;27;20059;-57
2021/05/19 00:16:17;;;;;;;8.68;5.68;;;8.70;99.90;;;;;;5156990;27;20464;-57
2021/05/19 00:18:43;;;;;;;5.80;5.13;;;8.70;99.90;;;;;;5156651;27;20043;-57
2021/05/19 00:21:10;;;;;;;7.18;4.72;;;8.80;99.90;;;;;;5156364;27;20461;-57
2021/05/19 00:23:36;;;;;;;8.88;4.80;;;8.80;99.90;;;;;;5157081;27;20049;-57
2021/05/19 00:26:03;;;;;;;5.18;4.68;;;8.70;99.90;;;;;;5156710;27;20038;-57
2021/05/19 00:28:29;;;;;;;6.07;5.25;;;8.60;99.90;;;;;;5156708;27;20046;-57
2021/05/19 00:30:57;;;;;;;7.32;4.82;;;8.60;99.90;;;;;;5156510;27;20054;-57
2021/05/19 00:33:23;;;;;;;5.13;4.47;;;8.60;99.90;;;;;;5156422;27;20057;-57
2021/05/19 00:35:49;;;;;;;6.28;4.72;;;8.50;99.90;;;;;;5156626;27;20049;-57
2021/05/19 00:38:15;;;;;;;5.88;4.72;;;8.50;99.90;;;;;;5156676;27;20051;-57
2021/05/19 00:40:41;;;;;;;5.53;4.20;;;8.50;99.90;;;;;;5156371;27;20043;-57
2021/05/19 00:43:07;;;;;;;5.47;4.60;;;8.40;99.90;;;;;;5156354;27;20072;-57
2021/05/19 00:45:33;;;;;;;5.80;5.18;;;8.40;99.90;;;;;;5156256;27;20480;-57
2021/05/19 00:47:59;;;;;;;6.82;4.72;;;8.40;99.90;;;;;;5156116;27;20560;-57
2021/05/19 00:50:28;;;;;;;6.35;4.43;;;8.40;99.90;;;;;;5156407;27;20039;-57
2021/05/19 00:52:55;;;;;;;5.03;4.53;;;8.30;99.90;;;;;;5156134;27;20088;-57
2021/05/19 00:55:21;;;;;;;5.20;4.57;;;8.30;99.90;;;;;;5156061;27;20038;-57
2021/05/19 00:57:49;;;;;;;5.03;4.35;;;8.30;99.90;;;;;;5156128;27;20472;-57
2021/05/19 01:00:17;;;;;;;5.50;4.57;;;8.40;99.90;;;;;;5156040;27;20039;-57
2021/05/19 01:02:44;;;;;;;5.65;5.05;;;8.30;99.90;;;;;;5156102;27;20130;-57
2021/05/19 01:05:29;;;;;;;6.88;5.70;;;8.30;99.90;;;;;;5156141;27;20066;-57
2021/05/19 01:10:39;;;;;;;8.60;5.80;;;8.10;99.90;;;;;;5155687;27;20065;-57
2021/05/19 01:13:06;;;;;;;5.85;5.32;;;8.20;99.90;;;;;;5155719;27;20042;-57
2021/05/19 01:15:32;;;;;;;6.30;5.53;;;8.20;99.90;;;;;;5155943;27;20073;-57
2021/05/19 01:17:59;;;;;;;9.68;6.60;;;8.20;99.90;;;;;;5155757;27;20042;-57
2021/05/19 01:20:25;;;;;;;8.82;5.10;;;8.20;99.90;;;;;;5155331;27;20104;-57
2021/05/19 01:22:51;;;;;;;7.03;5.03;;;8.20;99.90;;;;;;5155683;27;20045;-57
2021/05/19 01:25:17;;;;;;;7.13;5.57;;;8.10;99.90;;;;;;5155453;27;20109;-57
2021/05/19 01:27:53;;;;;;;5.88;5.20;;;8.00;99.90;;;;;;5155912;27;20042;-57
2021/05/19 01:30:20;;;;;;;5.40;4.68;;;7.90;99.90;;;;;;5136566;27;20042;-57
2021/05/19 01:32:45;;;;;;;6.05;5.00;;;7.90;99.90;;;;;;5155426;27;20099;-57
2021/05/19 01:35:13;;;;;;;7.15;6.00;;;8.00;99.90;;;;;;5155504;27;20046;-57
2021/05/19 01:37:39;;;;;;;6.25;5.65;;;8.00;99.90;;;;;;5155249;27;20095;-57
2021/05/19 01:40:07;;;;;;;6.80;6.05;;;8.10;99.90;;;;;;5155418;27;20045;-57
2021/05/19 01:42:32;;;;;;;6.22;5.60;;;7.90;99.90;;;;;;5136740;27;20480;-57
2021/05/19 01:44:59;;;;;;;7.07;5.35;;;7.80;99.90;;;;;;5154969;27;20479;-57
2021/05/19 01:47:48;;;;;;;10.32;6.75;;;7.80;99.90;;;;;;5155234;27;20043;-57
2021/05/19 01:50:28;;;;;;;7.88;6.03;;;7.80;99.90;;;;;;5155096;27;20054;-57
2021/05/19 01:53:02;;;;;;;8.82;5.43;;;7.90;99.90;;;;;;5155384;27;20047;-57
2021/05/19 01:55:28;;;;;;;6.93;6.03;;;7.80;99.90;;;;;;5155078;27;20048;-57
2021/05/19 01:57:54;;;;;;;6.93;6.22;;;7.80;99.90;;;;;;5154967;27;20046;-57
2021/05/19 02:00:26;;;;;;;10.18;6.82;;;7.80;99.90;;;;;;5154971;27;20065;-57
2021/05/19 02:02:58;;;;;;;9.60;6.78;;;7.80;99.90;;;;;;5154692;27;20121;-57
2021/05/19 02:05:25;;;;;;;11.70;7.18;;;7.80;99.90;;;;;;5154844;27;20395;-57
2021/05/19 02:07:52;;;;;;;10.23;7.47;;;7.80;99.90;;;;;;5154569;27;20051;-57
2021/05/19 02:10:18;;;;;;;9.75;7.20;;;7.80;99.90;;;;;;5154825;27;20064;-57
2021/05/19 02:12:44;;;;;;;10.02;7.03;;;7.80;99.90;;;;;;5154442;27;20043;-57
2021/05/19 02:15:10;;;;;;;10.88;6.80;;;7.80;99.90;;;;;;5154937;27;20087;-57
2021/05/19 02:17:36;;;;;;;8.85;6.93;;;7.80;99.90;;;;;;5154487;27;20052;-57
2021/05/19 02:20:10;;;;;;;12.65;8.63;;;7.80;99.90;;;;;;5154404;27;20047;-57
2021/05/19 02:22:36;;;;;;;11.60;8.43;;;7.90;99.90;;;;;;5153678;27;20049;-57
2021/05/19 02:25:04;;;;;;;12.25;8.00;;;7.80;99.90;;;;;;5154394;27;20133;-57
2021/05/19 02:27:32;;;;;;;12.07;9.02;;;7.90;99.90;;;;;;5154234;27;20042;-57
2021/05/19 02:29:58;;;;;;;11.95;8.30;;;7.90;99.90;;;;;;5154166;27;20043;-57
2021/05/19 02:32:27;;;;;;;12.02;8.63;;;7.90;99.90;;;;;;5154177;27;20390;-57
2021/05/19 02:34:54;;;;;;;8.57;7.68;;;8.00;99.90;;;;;;5154489;27;20085;-57
2021/05/19 02:37:20;;;;;;;10.80;8.55;;;8.00;99.90;;;;;;5154058;27;20046;-57
2021/05/19 02:39:46;;;;;;;13.30;8.88;;;8.00;99.90;;;;;;5154343;27;20046;-56
2021/05/19 02:42:12;;;;;;;12.90;9.13;;;8.10;99.90;;;;;;5154084;27;20396;-57
2021/05/19 02:44:38;;;;;;;11.95;8.68;;;8.10;99.90;;;;;;5153990;27;20043;-57
2021/05/19 02:47:05;;;;;;;10.40;7.50;;;8.10;99.90;;;;;;5154049;27;20485;-57
2021/05/19 02:49:31;;;;;;;10.25;8.07;;;8.10;99.90;;;;;;5153843;27;20046;-57
2021/05/19 02:51:57;;;;;;;12.35;8.95;;;8.20;99.90;;;;;;5153921;27;20130;-57
2021/05/19 02:54:23;;;;;;;11.90;8.10;;;8.20;99.90;;;;;;5153826;27;20137;-57
2021/05/19 02:56:49;;;;;;;11.02;8.23;;;8.30;99.90;;;;;;5153717;27;20096;-57
2021/05/19 02:59:15;;;;;;;12.90;8.65;;;8.30;99.90;;;;;;5153627;27;20047;-56
2021/05/19 03:01:41;;;;;;;11.23;8.98;;;8.30;99.90;;;;;;5153833;27;20124;-57
2021/05/19 03:04:06;;;;;;;11.75;9.15;;;8.20;99.90;;;;;;5153845;27;20047;-56
2021/05/19 03:06:34;;;;;;;11.45;8.43;;;8.30;99.90;;;;;;5153836;27;20050;-56
2021/05/19 03:09:00;;;;;;;11.15;9.38;;;8.30;99.90;;;;;;5153570;27;20439;-56
2021/05/19 03:11:26;;;;;;;11.65;8.77;;;8.30;99.90;;;;;;5153571;27;20046;-57
2021/05/19 03:13:52;;;;;;;11.25;8.50;;;8.30;99.90;;;;;;5153592;27;20031;-56
2021/05/19 03:16:18;;;;;;;9.43;8.50;;;8.40;99.90;;;;;;5153462;27;20449;-57
2021/05/19 03:18:44;;;;;;;13.15;8.57;;;8.40;99.90;;;;;;5153576;27;20074;-56
2021/05/19 03:21:10;;;;;;;10.70;8.18;;;8.40;99.90;;;;;;5153258;27;20067;-57
2021/05/19 03:23:36;;;;;;;12.88;8.52;;;8.40;99.90;;;;;;5153597;27;20039;-57
2021/05/19 03:26:02;;;;;;;12.85;8.52;;;8.50;99.90;;;;;;5153437;27;20503;-57
2021/05/19 03:28:31;;;;;;;;;;;8.40;99.90;;;;;;5153807;27;20061;-57
2021/05/19 03:30:57;;;;;;;11.52;8.75;;;8.50;99.90;;;;;;5153577;27;20511;-56
2021/05/19 03:33:24;;;;;;;12.90;8.65;;;8.50;99.90;;;;;;5154543;27;20062;-57
2021/05/19 03:35:51;;;;;;;12.77;9.00;;;8.50;99.90;;;;;;5157644;27;20034;-56
2021/05/19 03:38:17;;;;;;;13.50;9.10;;;8.50;99.90;;;;;;5157573;27;20038;-57
2021/05/19 03:40:44;;;;;;;13.48;9.32;;;8.50;99.90;;;;;;5157688;27;20065;-56
2021/05/19 03:43:09;;;;;;;12.43;9.40;;;8.60;99.90;;;;;;5157835;27;20089;-57
2021/05/19 03:45:36;;;;;;;16.77;9.57;;;8.50;99.90;;;;;;5157809;27;20474;-56
2021/05/19 03:48:03;;;;;;;16.08;9.45;;;8.60;99.90;;;;;;5157864;27;20047;-57
2021/05/19 03:50:30;;;;;;;12.70;9.63;;;8.60;99.90;;;;;;5157457;27;20091;-57
2021/05/19 03:53:00;;;;;;;13.07;9.85;;;8.60;99.90;;;;;;5157505;27;20039;-57
2021/05/19 03:55:26;;;;;;;11.40;8.50;;;8.60;99.90;;;;;;5157240;27;20099;-56
2021/05/19 03:57:52;;;;;;;12.20;8.63;;;8.60;99.90;;;;;;5157465;27;20095;-57
2021/05/19 04:00:25;;;;;;;10.32;8.15;;;8.60;99.90;;;;;;5157433;27;20100;-57
2021/05/19 04:02:51;;;;;;;13.35;9.23;;;8.60;99.90;;;;;;5157171;27;20087;-57
2021/05/19 04:05:19;;;;;;;11.77;8.82;;;8.50;99.90;;;;;;5157140;27;20046;-56
2021/05/19 04:07:47;;;;;;;12.07;8.68;;;8.50;99.90;;;;;;5157062;27;20074;-57
2021/05/19 04:10:13;;;;;;;11.83;9.17;;;8.50;99.90;;;;;;5157331;27;20045;-56
2021/05/19 04:12:38;;;;;;;9.82;8.82;;;8.50;99.90;;;;;;5157144;27;20043;-57
2021/05/19 04:15:05;;;;;;;10.35;9.00;;;8.50;99.90;;;;;;5156858;27;20544;-56
2021/05/19 04:17:31;;;;;;;12.23;8.40;;;8.50;99.90;;;;;;5156838;27;20118;-57
2021/05/19 04:19:57;;;;;;;12.52;8.52;;;8.40;99.90;;;;;;5156636;27;20138;-56
2021/05/19 04:22:23;;;;;;;11.15;8.77;;;8.50;99.90;;;;;;5156744;27;20066;-56
2021/05/19 04:24:49;;;;;;;10.82;8.68;;;8.40;99.90;;;;;;5156926;27;20420;-56
2021/05/19 04:27:15;;;;;;;11.73;9.20;;;8.40;99.90;;;;;;5157095;27;20493;-57
2021/05/19 04:29:40;;;;;;;12.55;8.88;;;8.50;99.90;;;;;;5156670;27;20090;-57
2021/05/19 04:32:06;;;;;;;11.98;8.93;;;8.60;99.90;;;;;;5156778;27;20042;-57
2021/05/19 04:34:36;;;;;;;13.25;9.35;;;8.60;99.90;;;;;;5156459;27;20491;-57
2021/05/19 04:37:02;;;;;;;13.02;9.05;;;8.70;99.90;;;;;;5156487;27;20056;-56
2021/05/19 04:39:28;;;;;;;12.63;9.77;;;8.80;99.90;;;;;;5156560;27;20495;-57
2021/05/19 04:41:54;;;;;;;15.02;10.63;;;8.80;99.90;;;;;;5156588;27;20111;-56
2021/05/19 04:44:19;;;;;;;14.75;10.73;;;8.80;99.90;;;;;;5156088;27;20038;-56
2021/05/19 04:46:45;;;;;;;14.45;10.38;;;8.90;99.90;;;;;;5155627;27;20043;-56
2021/05/19 04:49:11;;;;;;;14.98;11.10;;;9.00;99.90;;;;;;5156271;27;20399;-56
2021/05/19 04:51:37;;;;;;;14.57;11.40;;;9.00;99.90;;;;;;5156192;27;20042;-56
2021/05/19 04:54:03;;;;;;;16.98;10.63;;;9.00;99.90;;;;;;5156325;27;20050;-57
2021/05/19 04:56:28;;;;;;;14.93;11.02;;;9.00;99.90;;;;;;5156476;27;20042;-57
2021/05/19 04:58:54;;;;;;;14.90;10.73;;;9.00;99.90;;;;;;5156185;27;20078;-56
2021/05/19 05:01:20;;;;;;;15.32;9.93;;;9.00;99.90;;;;;;5156026;27;20034;-56
2021/05/19 05:03:46;;;;;;;11.85;10.38;;;9.00;99.90;;;;;;5156070;27;20042;-57
2021/05/19 05:06:11;;;;;;;14.10;10.32;;;9.10;99.90;;;;;;5155921;27;20095;-57
2021/05/19 05:08:37;;;;;;;15.73;11.15;;;9.00;99.90;;;;;;5156067;27;20099;-56
2021/05/19 05:11:03;;;;;;;12.60;10.35;;;9.10;99.90;;;;;;5156025;27;20081;-56
2021/05/19 05:13:29;;;;;;;16.50;10.63;;;9.20;99.90;;;;;;5155939;27;20047;-57
2021/05/19 05:15:54;;;;;;;15.65;11.07;;;9.20;99.90;;;;;;5155748;27;20050;-56
2021/05/19 05:18:20;;;;;;;13.73;10.60;;;9.20;99.90;;;;;;5155980;27;20074;-56
2021/05/19 05:20:46;;;;;;;13.88;11.18;;;9.30;99.90;;;;;;5155496;27;20493;-57
2021/05/19 05:23:12;;;;;;;15.85;10.93;;;9.40;99.90;;;;;;5155857;27;20039;-57
2021/05/19 05:25:38;;;;;;;14.40;11.82;;;9.40;99.90;;;;;;5155506;27;20475;-57
2021/05/19 05:28:04;;;;;;;12.65;10.75;;;9.50;99.90;;;;;;5155554;27;20055;-57
2021/05/19 05:30:30;;;;;;;17.20;12.27;;;9.50;99.90;;;;;;5155561;27;20070;-57
2021/05/19 05:32:56;;;;;;;15.43;12.63;;;9.60;99.90;;;;;;5155566;27;20193;-57
2021/05/19 05:35:22;;;;;;;17.75;12.57;;;9.70;99.90;;;;;;5155279;27;20061;-57
2021/05/19 05:37:47;;;;;;;14.07;12.15;;;9.80;99.90;;;;;;5155495;27;20050;-57
2021/05/19 05:40:13;;;;;;;17.65;12.52;;;9.90;99.90;;;;;;5155579;27;20125;-57
2021/05/19 05:42:39;;;;;;;18.10;12.10;;;9.90;99.90;;;;;;5155242;27;20039;-57
2021/05/19 05:45:07;;;;;;;18.38;12.63;;;9.90;99.90;;;;;;5155211;27;20475;-57
2021/05/19 05:47:34;;;;;;;15.98;12.35;;;10.00;99.90;;;;;;5155100;27;20404;-57
2021/05/19 05:50:03;;;;;;;15.80;12.48;;;10.00;99.90;;;;;;5155102;27;20415;-57
2021/05/19 05:52:30;;;;;;;16.92;11.77;;;10.20;99.90;;;;;;5154857;27;20043;-57
2021/05/19 05:54:56;;;;;;;15.90;11.55;;;10.20;99.90;;;;;;5155163;27;20053;-57
2021/05/19 05:57:22;;;;;;;13.98;11.80;;;10.30;99.90;;;;;;5153849;27;20452;-57
2021/05/19 05:59:48;;;;;;;13.68;11.35;;;10.30;99.90;;;;;;5154801;27;20050;-57
2021/05/19 06:02:13;;;;;;;14.80;11.68;;;10.30;99.90;;;;;;5136252;27;20439;-57
2021/05/19 06:04:39;;;;;;;14.35;12.05;;;10.40;99.90;;;;;;5154492;27;20042;-57
2021/05/19 06:07:05;;;;;;;15.73;12.73;;;10.50;99.90;;;;;;5154968;27;20039;-57
2021/05/19 06:09:31;;;;;;;13.73;11.10;;;10.50;99.90;;;;;;5154605;27;20404;-57
2021/05/19 06:11:57;;;;;;;15.43;11.73;;;10.50;99.90;;;;;;5154651;27;20042;-57
2021/05/19 06:14:22;;;;;;;15.23;11.63;;;10.60;99.90;;;;;;5154561;27;20062;-57
2021/05/19 06:16:48;;;;;;;15.85;11.88;;;10.60;99.90;;;;;;5155002;27;20578;-57
2021/05/19 06:19:14;;;;;;;14.40;11.50;;;10.50;99.90;;;;;;5135630;27;20054;-57
2021/05/19 06:21:40;;;;;;;16.55;12.85;;;10.60;99.90;;;;;;5154187;27;20046;-57
2021/05/19 06:24:07;;;;;;;15.32;12.27;;;10.60;99.90;;;;;;5154572;27;20043;-57
2021/05/19 06:26:33;;;;;;;14.68;11.95;;;10.60;99.90;;;;;;5154400;27;20038;-56
2021/05/19 06:28:59;;;;;;;16.20;12.68;;;10.70;99.90;;;;;;5154146;27;20047;-57
2021/05/19 06:31:24;;;;;;;15.52;12.80;;;10.70;99.90;;;;;;5154290;27;20039;-57
2021/05/19 06:33:50;;;;;;;17.35;13.50;;;10.90;99.90;;;;;;5154150;27;20039;-57
2021/05/19 06:36:16;;;;;;;15.95;12.38;;;10.90;99.90;;;;;;5154344;27;20045;-57
2021/05/19 06:38:42;;;;;;;17.85;13.10;;;11.00;99.90;;;;;;5154180;27;20042;-57
2021/05/19 06:41:08;;;;;;;16.27;13.50;;;11.20;99.90;;;;;;5153906;27;20476;-57
2021/05/19 06:43:34;;;;;;;16.70;12.00;;;11.30;99.90;;;;;;5153914;27;20115;-57
2021/05/19 06:45:59;;;;;;;16.80;12.20;;;11.30;99.90;;;;;;5153949;27;20039;-56
2021/05/19 06:48:25;;;;;;;19.63;12.73;;;11.40;99.90;;;;;;5153933;27;20541;-57
2021/05/19 06:50:51;;;;;;;19.30;12.82;;;11.40;99.90;;;;;;5153790;27;20046;-57
2021/05/19 06:53:17;;;;;;;21.20;13.32;;;11.50;99.90;;;;;;5154030;27;20038;-57
2021/05/19 06:55:50;;;;;;;18.50;13.85;;;11.50;99.90;;;;;;5153837;27;20031;-57
2021/05/19 06:58:17;;;;;;;19.30;12.82;;;11.60;99.90;;;;;;5153812;27;20481;-57
2021/05/19 07:00:42;;;;;;;17.85;13.25;;;11.60;99.90;;;;;;5153641;27;20042;-57
2021/05/19 07:03:08;;;;;;;21.15;14.02;;;11.80;99.90;;;;;;5153564;27;20095;-56
2021/05/19 07:05:33;;;;;;;14.65;12.90;;;11.90;99.90;;;;;;5153846;27;20121;-57
2021/05/19 07:07:59;;;;;;;19.63;15.13;;;12.10;99.90;;;;;;5153403;27;20050;-57
2021/05/19 07:10:25;;;;;;;17.58;13.38;;;12.50;99.90;;;;;;5153624;27;20053;-58
2021/05/19 07:12:51;;;;;;;18.00;14.18;;;12.70;99.90;;;;;;5153429;27;20038;-57
2021/05/19 07:15:18;;;;;;;16.42;13.23;;;12.70;99.90;;;;;;5153543;27;20050;-57
2021/05/19 07:17:44;;;;;;;19.33;13.10;;;12.80;99.90;;;;;;5153733;27;20053;-57
2021/05/19 07:20:11;;;;;;;18.95;15.10;;;12.90;99.90;;;;;;5153454;27;20055;-57
2021/05/19 07:22:39;;;;;;;20.10;15.27;;;12.80;99.90;;;;;;5153503;27;20050;-57
2021/05/19 07:25:05;;;;;;;20.83;14.48;;;12.80;99.90;;;;;;5153394;27;20049;-58
2021/05/19 07:27:31;;;;;;;20.20;15.75;;;12.80;99.90;;;;;;5153456;27;20074;-57
2021/05/19 07:29:57;;;;;;;20.77;15.63;;;12.70;99.90;;;;;;5153487;27;20046;-57
2021/05/19 07:32:22;;;;;;;23.10;17.63;;;12.80;99.90;;;;;;5153628;27;20051;-57
2021/05/19 07:34:48;;;;;;;22.35;16.20;;;12.80;99.90;;;;;;5153317;27;20483;-57
2021/05/19 07:37:14;;;;;;;17.48;15.23;;;12.70;99.90;;;;;;5153166;27;20039;-57
2021/05/19 07:39:40;;;;;;;22.38;16.17;;;12.70;99.90;;;;;;5153237;27;20046;-57
2021/05/19 07:42:05;;;;;;;25.00;16.73;;;12.70;99.90;;;;;;5153144;27;20047;-57
2021/05/19 07:44:31;;;;;;;21.92;16.58;;;12.80;99.90;;;;;;5153352;27;20049;-57
2021/05/19 07:46:58;;;;;;;23.38;15.25;;;12.80;99.90;;;;;;5153369;27;20039;-57
2021/05/19 07:49:24;;;;;;;22.30;16.25;;;12.90;99.90;;;;;;5153468;27;20380;-57
2021/05/19 07:51:50;;;;;;;24.20;16.05;;;13.00;99.90;;;;;;5153289;27;20072;-58
2021/05/19 07:54:25;;;;;;;20.38;16.50;;;13.30;99.90;;;;;;5153187;27;20062;-57
2021/05/19 07:56:58;;;;;;;21.90;16.23;;;13.50;99.90;;;;;;5153072;27;20373;-58
2021/05/19 07:59:27;;;;;;;20.67;15.38;;;13.80;99.90;;;;;;5153246;27;20054;-57
2021/05/19 08:04:29;;;;;;;20.95;17.67;;;14.10;99.90;;;;;;5152950;27;20042;-57
2021/05/19 08:06:55;;;;;;;21.77;16.80;;;14.10;99.90;;;;;;5152969;27;20035;-57
2021/05/19 08:09:21;;;;;;;25.58;17.73;;;14.20;99.90;;;;;;5152888;27;20143;-57
2021/05/19 08:11:48;;;;;;;23.70;17.90;;;14.20;99.90;;;;;;5153203;27;20485;-58
2021/05/19 08:14:14;;;;;;;21.95;17.27;;;14.40;99.90;;;;;;5153083;27;20035;-58
2021/05/19 08:16:41;;;;;;;30.83;18.33;;;14.60;99.90;;;;;;5153181;27;20039;-57
2021/05/19 08:19:06;;;;;;;28.60;19.38;;;14.70;99.90;;;;;;5152705;27;20064;-58
2021/05/19 08:21:33;;;;;;;22.35;18.30;;;14.70;99.90;;;;;;5155568;27;20445;-57
2021/05/19 08:23:58;;;;;;;21.63;17.65;;;14.70;99.90;;;;;;5137473;27;20385;-58
2021/05/19 08:26:24;;;;;;;19.05;16.55;;;14.80;99.90;;;;;;5156514;27;20118;-57
2021/05/19 08:28:51;;;;;;;22.83;17.08;;;15.20;99.90;;;;;;5156734;27;20081;-58
2021/05/19 08:31:19;;;;;;;19.40;16.48;;;15.00;99.90;;;;;;5156708;27;20114;-57
2021/05/19 08:33:49;;;;;;;19.50;15.05;;;15.00;99.90;;;;;;5156527;27;20536;-57
2021/05/19 08:36:15;;;;;;;21.52;15.45;;;15.00;99.90;;;;;;5156560;27;20078;-57
2021/05/19 08:38:43;;;;;;;19.10;15.38;;;15.50;99.90;;;;;;5136924;27;20049;-58
2021/05/19 08:41:09;;;;;;;19.25;14.93;;;16.10;99.90;;;;;;5137540;27;20373;-58
2021/05/19 08:43:36;;;;;;;22.75;17.00;;;16.30;99.90;;;;;;5156605;27;20066;-57
2021/05/19 08:46:06;;;;;;;16.70;14.90;;;16.70;99.90;;;;;;5156346;27;20042;-58
2021/05/19 08:48:32;;;;;;;18.85;15.48;;;17.10;99.90;;;;;;5156493;27;20043;-58
2021/05/19 08:50:58;;;;;;;27.13;15.60;;;17.30;99.90;;;;;;5156039;27;20050;-57
2021/05/19 08:53:26;;;;;;;18.50;14.27;;;17.60;99.90;;;;;;5156164;27;20051;-58
2021/05/19 08:55:52;;;;;;;15.90;12.07;;;17.70;99.90;;;;;;5156018;27;20038;-58
2021/05/19 08:58:18;;;;;;;20.40;11.45;;;18.10;99.90;;;;;;5156040;27;20099;-58
2021/05/19 09:00:44;;;;;;;14.40;10.05;;;17.40;99.90;;;;;;5156005;27;20505;-58
2021/05/19 09:03:14;;;;;;;14.68;9.82;;;17.50;99.90;;;;;;5155914;27;20046;-58
2021/05/19 09:05:45;;;;;;;12.95;9.65;;;17.40;99.90;;;;;;5155794;27;20395;-58
2021/05/19 09:08:16;;;;;;;15.48;10.10;;;17.50;99.90;;;;;;5155832;27;20095;-58
2021/05/19 09:11:00;;;;;;;14.68;9.32;;;17.50;99.90;;;;;;5155892;27;20046;-58
2021/05/19 09:13:39;;;;;;;12.18;8.45;;;17.80;99.90;;;;;;5155793;27;20356;-58
2021/05/19 09:16:05;;;;;;;14.18;10.15;;;17.90;99.90;;;;;;5155563;27;20043;-58
2021/05/19 09:18:54;;;;;;;10.30;9.02;;;17.60;99.90;;;;;;5155502;27;20080;-58
2021/05/19 09:21:36;;;;;;;14.93;10.80;;;17.10;99.90;;;;;;5155579;27;20131;-59
2021/05/19 09:24:06;;;;;;;11.88;9.30;;;17.20;99.90;;;;;;5155707;27;20157;-58
2021/05/19 09:26:32;;;;;;;12.02;10.70;;;17.10;99.90;;;;;;5155699;27;20464;-58
2021/05/19 09:29:24;;;;;;;14.70;11.02;;;17.00;99.90;;;;;;5137012;27;20050;-58
2021/05/19 09:32:02;;;;;;;14.80;10.98;;;16.90;99.90;;;;;;5136692;27;20039;-59
2021/05/19 09:34:40;;;;;;;11.52;9.80;;;16.70;99.90;;;;;;5136222;27;20043;-58
2021/05/19 09:37:24;;;;;;;14.73;11.07;;;16.60;99.90;;;;;;5136627;27;20034;-58
2021/05/19 09:39:56;;;;;;;12.65;11.07;;;16.40;99.90;;;;;;5136843;27;20039;-58
2021/05/19 09:42:27;;;;;;;16.25;10.00;;;16.30;99.90;;;;;;5155099;27;20492;-59
2021/05/19 09:44:56;;;;;;;17.13;12.10;;;16.00;99.90;;;;;;5155210;27;20031;-59
2021/05/19 09:47:37;;;;;;;17.65;13.07;;;15.70;99.90;;;;;;5155080;27;20038;-58
2021/05/19 09:50:05;;;;;;;9.35;7.57;;;15.60;99.90;;;;;;5154959;27;20481;-59
2021/05/19 09:52:31;;;;;;;6.50;5.10;;;15.40;99.90;;;;;;5154923;27;20079;-58
2021/05/19 09:55:09;;;;;;;3.40;2.83;;;15.10;99.90;;;;;;5154885;27;20045;-59
2021/05/19 09:57:45;;;;;;;6.70;2.90;;;15.00;99.90;;;;;;5154772;27;20526;-58
2021/05/19 10:00:21;;;;;;;4.32;2.67;;;15.00;99.90;;;;;;5154597;27;20070;-57
2021/05/19 10:02:48;;;;;;;2.45;1.63;;;15.20;99.90;;;;;;5135762;27;20039;-57
2021/05/19 10:05:18;;;;;;;1.45;1.35;;;15.30;99.90;;;;;;5154770;27;20039;-59
2021/05/19 10:07:43;;;;;;;3.40;1.70;;;15.40;99.90;;;;;;5154648;27;20040;-59
2021/05/19 10:10:09;;;;;;;2.38;1.35;;;15.30;99.90;;;;;;5154519;27;20091;-59
2021/05/19 10:12:39;;;;;;;1.60;1.45;;;15.30;99.90;;;;;;5154955;27;20629;-58
2021/05/19 10:15:13;;;;;;;5.05;3.50;;;15.30;99.90;;;;;;5154475;27;20058;-59
2021/05/19 10:17:46;;;;;;;3.70;3.17;;;15.30;99.90;;;;;;5154307;27;20120;-59
2021/05/19 10:20:19;;;;;;;9.10;5.88;;;15.40;99.90;;;;;;5154324;27;20552;-58
2021/05/19 10:22:50;;;;;;;6.72;4.22;;;15.40;99.90;;;;;;5153868;27;20139;-59
2021/05/19 10:25:39;;;;;;;13.25;9.45;;;15.40;99.90;;;;;;5154329;27;20038;-58
2021/05/19 10:28:12;;;;;;;2.90;1.90;;;15.40;99.90;;;;;;5154517;27;20050;-58
2021/05/19 10:30:42;;;;;;;6.43;3.03;;;15.60;99.90;;;;;;5154139;27;20100;-59
2021/05/19 10:33:37;;;;;;;8.93;5.15;;;16.00;99.90;;;;;;5154049;27;20030;-58
2021/05/19 10:36:24;;;;;;;4.60;3.58;;;16.40;99.90;;;;;;5154338;27;20126;-58
2021/05/19 10:39:11;;;;;;;3.38;2.55;;;17.00;99.90;;;;;;5153973;27;20150;-59
2021/05/19 10:41:50;;;;;;;2.60;1.95;;;17.50;99.90;;;;;;5153938;27;20088;-59
2021/05/19 10:44:22;;;;;;;2.55;1.38;;;18.00;99.90;;;;;;5153430;27;20087;-59
2021/05/19 10:46:55;;;;;;;2.33;1.50;;;18.30;99.90;;;;;;5153979;27;20130;-59
2021/05/19 10:49:22;;;;;;;2.00;1.55;;;18.70;99.90;;;;;;5153807;27;20544;-59
2021/05/19 10:52:09;;;;;;;1.40;1.23;;;18.90;99.30;;;;;;5153712;27;20047;-59
2021/05/19 11:01:13;;;;;;;3.75;2.70;;;19.40;99.30;;;;;;5153617;27;20058;-59
2021/05/19 11:03:41;;;;;;;5.05;3.30;;;18.90;99.90;;;;;;5153577;27;20492;-60
2021/05/19 11:06:09;;;;;;;4.25;2.97;;;18.40;99.40;;;;;;5153669;27;20095;-60
2021/05/19 11:08:36;;;;;;;3.60;1.98;;;17.70;99.90;;;;;;5153574;27;20602;-59
2021/05/19 11:11:30;;;;;;;3.80;2.15;;;17.40;99.90;;;;;;5153568;27;20039;-60
2021/05/19 11:14:02;;;;;;;4.32;2.47;;;16.90;99.90;;;;;;5153641;27;20042;-60
2021/05/19 11:16:51;;;;;;;3.33;2.97;;;16.60;99.90;;;;;;5153482;27;20072;-59
2021/05/19 11:19:28;;;;;;;10.30;3.58;;;16.40;99.90;;;;;;5153408;27;20046;-60
2021/05/19 11:22:03;;;;;;;8.20;3.80;;;16.20;99.90;;;;;;5153219;27;20043;-59
2021/05/19 11:24:29;;;;;;;11.45;4.15;;;15.90;99.90;;;;;;5153717;27;20125;-59
2021/05/19 11:26:55;;;;;;;8.02;3.88;;;15.40;99.90;;;;;;5153661;27;20126;-60
2021/05/19 11:29:22;;;;;;;9.27;4.68;;;15.20;99.90;;;;;;5153576;27;20103;-59
2021/05/19 11:31:51;;;;;;;12.32;5.18;;;14.80;99.90;;;;;;5153828;27;20055;-60
2021/05/19 11:34:20;;;;;;;;;;;14.60;99.90;;;;;;5153800;27;20075;-60
2021/05/19 11:36:52;;;;;;;6.32;4.05;;;14.50;99.90;;;;;;5153390;27;19915;-59
2021/05/19 11:39:32;;;;;;;6.25;3.13;;;14.20;99.90;;;;;;5153245;27;20410;-59
2021/05/19 11:42:23;;;;;;;9.85;3.88;;;14.00;99.90;;;;;;5153469;27;20107;-60
2021/05/19 11:45:04;;;;;;;11.00;4.00;;;13.80;99.90;;;;;;5153139;27;20035;-60
2021/05/19 11:47:36;;;;;;;7.18;4.30;;;13.60;99.90;;;;;;5153313;27;20039;-60
2021/05/19 11:50:09;;;;;;;8.45;4.43;;;13.50;99.90;;;;;;5153140;27;20035;-60
2021/05/19 11:52:57;;;;;;;4.93;3.22;;;13.40;99.90;;;;;;5153104;27;20043;-60
2021/05/19 11:55:35;;;;;;;5.57;3.70;;;13.20;99.90;;;;;;5156013;27;20109;-60
2021/05/19 11:58:09;;;;;;;3.83;3.00;;;13.10;99.90;;;;;;5157092;27;20400;-60
2021/05/19 12:00:43;;;;;;;7.43;3.78;;;13.10;99.90;;;;;;5157157;27;20050;-61
2021/05/19 12:03:10;;;;;;;5.05;4.35;;;12.90;99.90;;;;;;5157089;27;20126;-60
2021/05/19 12:05:54;;;;;;;6.22;4.95;;;12.90;99.90;;;;;;5157285;27;20041;-59
2021/05/19 12:08:47;;;;;;;5.13;4.47;;;12.90;99.90;;;;;;5156966;27;20042;-59
2021/05/19 12:11:24;;;;;;;5.07;4.57;;;12.80;99.90;;;;;;5052808;28;20068;-59
2021/05/19 12:13:55;;;;;;;5.30;4.43;;;12.80;99.90;;;;;;5036183;28;20053;-59
2021/05/19 12:16:34;;;;;;;5.07;4.63;;;12.80;99.90;;;;;;5052530;28;20055;-60
2021/05/19 12:19:08;;;;;;;6.82;4.60;;;12.80;99.90;;;;;;5052618;28;20037;-59
2021/05/19 12:21:44;;;;;;;4.72;3.95;;;12.80;99.90;;;;;;5052392;28;20056;-60
2021/05/19 12:24:12;;;;;;;7.38;4.50;;;12.80;99.90;;;;;;5052704;28;20045;-60
2021/05/19 12:26:39;;;;;;;8.43;5.07;;;12.70;99.90;;;;;;5052623;28;20498;-59
2021/05/19 12:29:31;;;;;;;7.90;5.30;;;12.70;99.90;;;;;;5052452;28;20212;-60
2021/05/19 12:32:11;;;;;;;8.90;5.57;;;12.80;99.90;;;;;;4993086;28;20059;-60
2021/05/19 12:34:37;;;;;;;7.10;5.57;;;12.80;99.90;;;;;;4993212;28;20046;-60
2021/05/19 12:37:03;;;;;;;11.60;6.47;;;12.70;99.90;;;;;;4993053;28;20046;-59
2021/05/19 12:39:30;;;;;;;8.85;6.43;;;12.70;99.90;;;;;;4993037;28;20556;-59
2021/05/19 12:41:58;;;;;;;5.40;4.90;;;12.70;99.90;;;;;;4992990;28;20046;-58
2021/05/19 12:44:31;;;;;;;5.60;3.90;;;12.60;99.90;;;;;;4992805;28;20076;-60
2021/05/19 12:47:07;;;;;;;7.07;3.47;;;12.50;99.90;;;;;;4993980;28;20038;-58
2021/05/19 12:49:33;;;;;;;5.28;2.88;;;12.50;99.90;;;;;;5072095;28;20449;-58
2021/05/19 12:52:05;;;;;;;4.50;2.67;;;12.50;99.90;;;;;;5072156;28;20068;-58
2021/05/19 12:54:34;;;;;;;4.78;3.00;;;12.50;99.90;;;;;;5072053;28;20044;-59
2021/05/19 12:57:16;;;;;;;4.55;3.88;;;12.50;99.90;;;;;;5072031;28;20046;-58
2021/05/19 13:00:00;;;;;;;8.18;4.07;;;12.60;99.90;;;;;;5072083;28;20052;-59
2021/05/19 13:02:41;;;;;;;4.90;3.30;;;12.60;99.90;;;;;;5072060;28;20056;-59
2021/05/19 13:05:16;;;;;;;5.57;4.25;;;12.50;99.90;;;;;;5071917;28;20518;-59